Time;durP1;ratioP1;P1;durP2;ratioP2;P2;SDS_P1;SDS_P2;PMS_P1;PMS_P2;Temp;Humidity;BMP_temperature;BMP_pressure;BME280_temperature;BME280_humidity;BME280_pressure;Samples;Min_cycle;Max_cycle;Signal;HPM_P1;HPM_P2
2023/01/16 00:00:35;;;;;;;;;;;;;;;;;;4437894;32;20191;-74
2023/01/16 00:03:00;;;;;;;11.88;9.27;;;;;;;;;;4452214;32;19993;-75
2023/01/16 00:05:25;;;;;;;;;;;;;;;;;;4438673;32;20164;-75
2023/01/16 00:07:50;;;;;;;10.68;7.75;;;;;;;;;;4451003;32;19955;-75
2023/01/16 00:10:16;;;;;;;10.90;7.72;;;;;;;;;;4450987;32;20026;-75
2023/01/16 00:12:41;;;;;;;;;;;;;;;;;;4451349;32;20081;-75
2023/01/16 00:15:06;;;;;;;12.63;7.62;;;;;;;;;;4451231;32;19941;-75
2023/01/16 00:17:32;;;;;;;10.88;7.80;;;;;;;;;;4451293;32;20076;-75
2023/01/16 00:19:57;;;;;;;;;;;;;;;;;;4451013;32;20354;-75
2023/01/16 00:22:22;;;;;;;11.60;6.65;;;;;;;;;;4451009;32;20028;-75
2023/01/16 00:24:47;;;;;;;8.43;5.05;;;;;;;;;;4453193;32;20022;-75
2023/01/16 00:27:12;;;;;;;;;;;;;;;;;;4455813;32;20077;-75
2023/01/16 00:29:37;;;;;;;9.55;4.53;;;;;;;;;;4439346;32;19936;-74
2023/01/16 00:32:03;;;;;;;;;;;;;;;;;;4455402;32;20188;-74
2023/01/16 00:34:28;;;;;;;8.55;5.20;;;;;;;;;;4439289;32;19985;-74
2023/01/16 00:36:53;;;;;;;;;;;;;;;;;;4454437;32;20120;-74
2023/01/16 00:39:18;;;;;;;8.98;5.40;;;;;;;;;;4453325;32;19933;-75
2023/01/16 00:41:43;;;;;;;7.50;5.00;;;;;;;;;;4453684;32;20048;-74
2023/01/16 00:44:09;;;;;;;14.48;5.40;;;;;;;;;;4454181;32;20025;-74
2023/01/16 00:46:34;;;;;;;13.80;6.78;;;;;;;;;;4453960;32;20408;-74
2023/01/16 00:48:59;;;;;;;;;;;;;;;;;;4453602;32;20025;-74
2023/01/16 00:51:24;;;;;;;9.73;6.80;;;;;;;;;;4439494;32;20352;-75
2023/01/16 00:53:49;;;;;;;;;;;;;;;;;;4439563;32;20526;-74
2023/01/16 00:56:14;;;;;;;16.15;6.70;;;;;;;;;;4440063;32;20034;-74
2023/01/16 00:58:39;;;;;;;;;;;;;;;;;;4455771;32;20121;-74
2023/01/16 01:01:05;;;;;;;18.65;10.05;;;;;;;;;;4439866;32;19937;-74
2023/01/16 01:03:30;;;;;;;;;;;;;;;;;;4439783;32;20405;-74
2023/01/16 01:05:55;;;;;;;21.55;9.18;;;;;;;;;;4454661;32;19964;-75
2023/01/16 01:08:20;;;;;;;;;;;;;;;;;;4454917;32;20147;-75
2023/01/16 01:10:46;;;;;;;14.02;7.95;;;;;;;;;;4453843;32;19996;-74
2023/01/16 01:13:11;;;;;;;;;;;;;;;;;;4439698;32;20116;-74
2023/01/16 01:15:36;;;;;;;19.02;9.08;;;;;;;;;;4452978;32;19932;-74
2023/01/16 01:18:01;;;;;;;;;;;;;;;;;;4454048;32;20056;-74
2023/01/16 01:20:27;;;;;;;19.67;9.75;;;;;;;;;;4438696;32;20307;-75
2023/01/16 01:22:52;;;;;;;;;;;;;;;;;;4452881;32;20264;-75
2023/01/16 01:25:17;;;;;;;18.98;9.40;;;;;;;;;;4452737;32;20285;-75
2023/01/16 01:27:42;;;;;;;;;;;;;;;;;;4453862;32;20120;-74
2023/01/16 01:30:08;;;;;;;15.70;10.13;;;;;;;;;;4452452;32;20351;-74
2023/01/16 01:32:33;;;;;;;;;;;;;;;;;;4454970;32;20176;-74
2023/01/16 01:34:58;;;;;;;21.60;11.48;;;;;;;;;;4452984;32;19937;-75
2023/01/16 01:37:23;;;;;;;;;;;;;;;;;;4452767;32;20025;-74
2023/01/16 01:39:50;;;;;;;21.27;11.60;;;;;;;;;;4443276;32;19974;-75
2023/01/16 01:45:02;;;;;;;29.02;12.75;;;;;;;;;;4438463;32;20044;-73
2023/01/16 01:47:31;;;;;;;18.50;10.18;;;;;;;;;;4438291;32;20042;-74
2023/01/16 01:49:59;;;;;;;18.67;10.95;;;;;;;;;;4437329;32;20038;-74
2023/01/16 01:52:24;;;;;;;19.02;9.85;;;;;;;;;;4437531;32;20022;-74
2023/01/16 01:54:49;;;;;;;;;;;;;;;;;;4437615;32;20094;-74
2023/01/16 01:57:22;;;;;;;22.00;9.27;;;;;;;;;;4423242;32;19936;-74
2023/01/16 01:59:53;;;;;;;10.85;6.35;;;;;;;;;;4422560;32;20156;-74
2023/01/16 02:02:20;;;;;;;17.37;6.40;;;;;;;;;;4422638;32;20078;-75
2023/01/16 02:04:46;;;;;;;18.17;6.60;;;;;;;;;;4424272;32;20045;-75
2023/01/16 02:07:11;;;;;;;;;;;;;;;;;;4423665;32;20312;-74
2023/01/16 02:09:36;;;;;;;21.73;6.65;;;;;;;;;;4422241;32;19937;-74
2023/01/16 02:12:01;;;;;;;;;;;;;;;;;;4436611;32;20176;-74
2023/01/16 02:14:33;;;;;;;15.52;5.35;;;;;;;;;;4436588;32;19937;-74
2023/01/16 02:20:16;;;;;;;17.55;7.82;;;;;;;;;;4438188;32;20440;-74
2023/01/16 02:22:44;;;;;;;13.48;6.93;;;;;;;;;;4436851;32;20324;-73
2023/01/16 02:25:12;;;;;;;13.57;7.18;;;;;;;;;;4436819;32;20074;-73
2023/01/16 02:27:37;;;;;;;18.27;8.80;;;;;;;;;;4437970;32;20113;-74
2023/01/16 02:30:02;;;;;;;;;;;;;;;;;;4437138;32;20365;-74
2023/01/16 02:32:30;;;;;;;26.48;9.13;;;;;;;;;;4437781;32;19979;-74
2023/01/16 02:34:59;;;;;;;24.77;10.38;;;;;;;;;;4422718;32;20510;-74
2023/01/16 02:37:37;;;;;;;29.05;10.48;;;;;;;;;;4436812;32;20112;-74
2023/01/16 02:40:05;;;;;;;22.27;10.75;;;;;;;;;;4437324;32;20058;-74
2023/01/16 02:42:41;;;;;;;23.85;10.70;;;;;;;;;;4437407;32;20041;-74
2023/01/16 02:45:17;;;;;;;17.73;10.90;;;;;;;;;;4438275;32;20084;-74
2023/01/16 02:48:02;;;;;;;21.30;10.15;;;;;;;;;;4437454;32;20559;-74
2023/01/16 02:50:30;;;;;;;17.10;10.13;;;;;;;;;;4441519;32;20037;-74
2023/01/16 02:53:12;;;;;;;23.33;10.10;;;;;;;;;;4451392;32;20033;-74
2023/01/16 02:55:49;;;;;;;18.58;8.70;;;;;;;;;;4452477;32;20131;-74
2023/01/16 02:58:16;;;;;;;15.43;8.60;;;;;;;;;;4453456;32;20085;-74
2023/01/16 03:00:49;;;;;;;18.95;8.82;;;;;;;;;;4452512;32;20052;-74
2023/01/16 03:03:33;;;;;;;19.12;8.07;;;;;;;;;;4438157;32;20101;-74
2023/01/16 03:06:03;;;;;;;18.45;8.77;;;;;;;;;;4451383;32;20056;-74
2023/01/16 03:08:34;;;;;;;16.42;8.95;;;;;;;;;;4438114;32;20066;-75
2023/01/16 03:11:21;;;;;;;24.92;10.35;;;;;;;;;;4452466;32;20449;-75
2023/01/16 03:13:47;;;;;;;;;;;;;;;;;;4451952;32;20420;-74
2023/01/16 03:16:31;;;;;;;14.10;8.60;;;;;;;;;;4437176;32;19972;-75
2023/01/16 03:19:05;;;;;;;16.48;8.00;;;;;;;;;;4451546;32;20030;-74
2023/01/16 03:21:48;;;;;;;10.32;6.28;;;;;;;;;;4451534;32;20060;-75
2023/01/16 03:24:22;;;;;;;13.15;5.62;;;;;;;;;;4451530;32;20092;-74
2023/01/16 03:26:54;;;;;;;16.20;5.15;;;;;;;;;;4451097;32;20053;-75
2023/01/16 03:29:31;;;;;;;10.85;4.22;;;;;;;;;;4437805;32;20025;-74
2023/01/16 03:32:06;;;;;;;14.35;4.85;;;;;;;;;;4453311;32;20048;-74
2023/01/16 03:34:49;;;;;;;10.00;3.90;;;;;;;;;;4437456;32;20044;-74
2023/01/16 03:37:20;;;;;;;15.63;3.78;;;;;;;;;;4436991;32;20033;-74
2023/01/16 03:39:47;;;;;;;12.15;3.42;;;;;;;;;;4437031;32;20025;-74
2023/01/16 03:42:33;;;;;;;15.68;4.50;;;;;;;;;;4436825;32;20095;-75
2023/01/16 03:45:00;;;;;;;11.98;2.90;;;;;;;;;;4437069;32;20358;-73
2023/01/16 03:47:29;;;;;;;12.25;3.47;;;;;;;;;;4437401;32;20028;-74
2023/01/16 03:49:57;;;;;;;11.65;3.87;;;;;;;;;;4451372;32;20038;-74
2023/01/16 03:52:24;;;;;;;10.38;3.83;;;;;;;;;;4451348;32;20480;-74
2023/01/16 03:54:52;;;;;;;9.75;2.80;;;;;;;;;;4436992;32;20092;-74
2023/01/16 03:57:36;;;;;;;10.00;2.42;;;;;;;;;;4453631;32;20445;-74
2023/01/16 04:00:02;;;;;;;8.43;2.65;;;;;;;;;;4461694;32;20093;-74
2023/01/16 04:02:27;;;;;;;;;;;;;;;;;;4443772;32;20026;-74
2023/01/16 04:05:13;;;;;;;6.45;2.05;;;;;;;;;;4454315;32;19980;-75
2023/01/16 04:07:42;;;;;;;12.18;2.67;;;;;;;;;;4426937;32;20037;-74
2023/01/16 04:10:10;;;;;;;7.70;2.22;;;;;;;;;;4454382;32;20082;-75
2023/01/16 04:12:37;;;;;;;4.50;2.30;;;;;;;;;;4440042;32;20033;-75
2023/01/16 04:15:05;;;;;;;15.65;2.83;;;;;;;;;;4454272;32;20030;-75
2023/01/16 04:17:32;;;;;;;7.00;2.37;;;;;;;;;;4439934;32;20392;-75
2023/01/16 04:19:58;;;;;;;11.75;2.33;;;;;;;;;;4440174;32;20021;-75
2023/01/16 04:22:23;;;;;;;;;;;;;;;;;;4454727;32;20056;-75
2023/01/16 04:24:49;;;;;;;6.75;2.90;;;;;;;;;;4440637;32;19988;-75
2023/01/16 04:27:14;;;;;;;7.18;2.80;;;;;;;;;;4454443;32;20471;-75
2023/01/16 04:29:40;;;;;;;;;;;;;;;;;;4456722;32;20069;-75
2023/01/16 04:32:05;;;;;;;9.77;3.25;;;;;;;;;;4456018;32;19932;-76
2023/01/16 04:34:30;;;;;;;;;;;;;;;;;;4440212;32;20138;-74
2023/01/16 04:36:55;;;;;;;6.60;3.58;;;;;;;;;;4455877;32;19943;-74
2023/01/16 04:39:20;;;;;;;;;;;;;;;;;;4453728;32;20030;-74
2023/01/16 04:41:50;;;;;;;14.30;3.15;;;;;;;;;;4454542;32;20027;-74
2023/01/16 04:44:15;;;;;;;15.07;2.97;;;;;;;;;;4438992;32;20457;-73
2023/01/16 04:46:40;;;;;;;;;;;;;;;;;;4439961;32;20021;-74
2023/01/16 04:49:06;;;;;;;11.57;2.85;;;;;;;;;;4454314;32;19951;-74
2023/01/16 04:51:31;;;;;;;;;;;;;;;;;;4454309;32;20074;-74
2023/01/16 04:53:56;;;;;;;8.50;3.60;;;;;;;;;;4453295;32;19945;-75
2023/01/16 04:56:21;;;;;;;;;;;;;;;;;;4439440;32;20053;-75
2023/01/16 04:58:47;;;;;;;9.20;3.30;;;;;;;;;;4453594;32;20328;-74
2023/01/16 05:01:12;;;;;;;;;;;;;;;;;;4453661;32;20140;-74
2023/01/16 05:03:37;;;;;;;5.80;3.00;;;;;;;;;;4453537;32;19932;-74
2023/01/16 05:06:02;;;;;;;;;;;;;;;;;;4454763;32;20468;-75
2023/01/16 05:08:28;;;;;;;12.06;3.36;;;;;;;;;;4453421;32;19940;-75
2023/01/16 05:10:53;;;;;;;;;;;;;;;;;;4453008;32;20184;-74
2023/01/16 05:13:19;;;;;;;7.85;3.12;;;;;;;;;;4453996;32;19969;-75
2023/01/16 05:15:44;;;;;;;;;;;;;;;;;;4439103;32;20468;-75
2023/01/16 05:18:09;;;;;;;14.06;3.66;;;;;;;;;;4454577;32;20336;-75
2023/01/16 05:20:34;;;;;;;;;;;;;;;;;;4454044;32;20375;-75
2023/01/16 05:23:00;;;;;;;9.66;2.62;;;;;;;;;;4453527;32;19933;-75
2023/01/16 05:25:25;;;;;;;;;;;;;;;;;;4454815;32;20085;-75
2023/01/16 05:27:50;;;;;;;10.73;3.45;;;;;;;;;;4453367;32;19944;-75
2023/01/16 05:30:16;;;;;;;11.98;2.92;;;;;;;;;;4439342;32;20062;-75
2023/01/16 05:32:41;;;;;;;;;;;;;;;;;;4453149;32;20023;-75
2023/01/16 05:35:06;;;;;;;6.35;2.70;;;;;;;;;;4454399;32;19937;-75
2023/01/16 05:37:31;;;;;;;;;;;;;;;;;;4439535;32;20190;-75
2023/01/16 05:39:57;;;;;;;12.73;2.90;;;;;;;;;;4454188;32;19947;-75
2023/01/16 05:42:24;;;;;;;;;;;;;;;;;;4453792;32;20519;-75
2023/01/16 05:44:50;;;;;;;15.27;3.17;;;;;;;;;;4453110;32;19940;-75
2023/01/16 05:47:15;;;;;;;;;;;;;;;;;;4453353;32;20032;-74
2023/01/16 05:49:40;;;;;;;12.27;3.62;;;;;;;;;;4437945;32;19936;-75
2023/01/16 05:52:05;;;;;;;8.38;4.05;;;;;;;;;;4453947;32;20026;-75
2023/01/16 05:54:30;;;;;;;15.30;4.30;;;;;;;;;;4452432;32;20469;-75
2023/01/16 05:56:56;;;;;;;;;;;;;;;;;;4453340;32;20074;-75
2023/01/16 05:59:21;;;;;;;13.20;4.16;;;;;;;;;;4438574;32;19941;-74
2023/01/16 06:01:46;;;;;;;;;;;;;;;;;;4452498;32;20783;-75
2023/01/16 06:04:11;;;;;;;9.95;4.35;;;;;;;;;;4452183;32;19951;-75
2023/01/16 06:06:37;;;;;;;10.27;3.10;;;;;;;;;;4452903;32;20033;-75
2023/01/16 06:09:03;;;;;;;9.25;3.33;;;;;;;;;;4452541;32;20069;-76
2023/01/16 06:11:28;;;;;;;;;;;;;;;;;;4452330;32;20081;-75
2023/01/16 06:13:53;;;;;;;11.23;2.70;;;;;;;;;;4438577;32;19983;-74
2023/01/16 06:16:18;;;;;;;;;;;;;;;;;;4452213;32;20454;-75
2023/01/16 06:18:43;;;;;;;13.48;3.22;;;;;;;;;;4452133;32;19944;-75
2023/01/16 06:21:09;;;;;;;10.18;2.87;;;;;;;;;;4452870;32;20021;-74
2023/01/16 06:23:34;;;;;;;;;;;;;;;;;;4453263;32;20045;-74
2023/01/16 06:26:00;;;;;;;7.93;2.55;;;;;;;;;;4451782;32;19936;-74
2023/01/16 06:28:26;;;;;;;10.25;2.58;;;;;;;;;;4439642;32;20029;-73
2023/01/16 06:30:51;;;;;;;;;;;;;;;;;;4437898;32;20373;-73
2023/01/16 06:33:17;;;;;;;9.98;2.58;;;;;;;;;;4452080;32;19971;-74
2023/01/16 06:35:42;;;;;;;;;;;;;;;;;;4452415;32;20073;-75
2023/01/16 06:38:07;;;;;;;14.05;3.30;;;;;;;;;;4452133;32;20016;-75
2023/01/16 06:40:32;;;;;;;;;;;;;;;;;;4451635;32;20205;-73
2023/01/16 06:42:57;;;;;;;12.10;3.60;;;;;;;;;;4437255;32;19937;-74
2023/01/16 06:45:24;;;;;;;;;;;;;;;;;;4452347;32;20139;-74
2023/01/16 06:47:52;;;;;;;13.38;2.72;;;;;;;;;;4452100;32;20301;-74
2023/01/16 06:50:18;;;;;;;11.63;3.53;;;;;;;;;;4440307;32;20371;-74
2023/01/16 06:52:43;;;;;;;;;;;;;;;;;;4453344;32;20383;-74
2023/01/16 06:55:08;;;;;;;9.73;3.05;;;;;;;;;;4452695;32;19945;-75
2023/01/16 06:57:33;;;;;;;;;;;;;;;;;;4451515;32;20193;-74
2023/01/16 06:59:58;;;;;;;11.93;3.47;;;;;;;;;;4450879;32;19940;-74
2023/01/16 07:02:23;;;;;;;;;;;;;;;;;;4452490;32;20112;-76
2023/01/16 07:04:49;;;;;;;10.45;3.37;;;;;;;;;;4452803;32;19950;-74
2023/01/16 07:07:14;;;;;;;;;;;;;;;;;;4451950;32;20471;-74
2023/01/16 07:09:39;;;;;;;10.43;3.03;;;;;;;;;;4452310;32;19936;-73
2023/01/16 07:12:04;;;;;;;;;;;;;;;;;;4452689;32;20142;-75
2023/01/16 07:22:43;;;;;;;11.98;2.83;;;;;;;;;;4452268;32;20098;-73
2023/01/16 07:25:20;;;;;;;11.82;3.03;;;;;;;;;;4452149;32;20037;-73
2023/01/16 07:27:47;;;;;;;7.93;3.00;;;;;;;;;;4450864;32;20104;-74
2023/01/16 07:30:13;;;;;;;9.75;3.70;;;;;;;;;;4452907;32;20405;-75
2023/01/16 07:32:38;;;;;;;;;;;;;;;;;;4452401;32;20143;-74
2023/01/16 07:35:03;;;;;;;9.75;2.62;;;;;;;;;;4455276;32;20002;-74
2023/01/16 07:37:28;;;;;;;;;;;;;;;;;;4442028;32;20124;-73
2023/01/16 07:39:54;;;;;;;10.30;3.00;;;;;;;;;;4455100;32;19979;-74
2023/01/16 07:42:19;;;;;;;;;;;;;;;;;;4455347;32;20492;-74
2023/01/16 07:44:44;;;;;;;12.73;3.40;;;;;;;;;;4454770;32;19944;-75
2023/01/16 07:47:12;;;;;;;9.68;2.75;;;;;;;;;;4453795;32;20411;-74
2023/01/16 07:49:37;;;;;;;10.60;3.15;;;;;;;;;;4454968;32;20097;-74
2023/01/16 07:52:02;;;;;;;;;;;;;;;;;;4454968;32;20377;-74
2023/01/16 07:54:28;;;;;;;15.88;2.97;;;;;;;;;;4440725;32;19933;-74
2023/01/16 07:56:53;;;;;;;7.40;2.85;;;;;;;;;;4453849;32;20048;-75
2023/01/16 07:59:18;;;;;;;;;;;;;;;;;;4454618;32;20026;-75
2023/01/16 08:01:45;;;;;;;8.52;3.05;;;;;;;;;;4453942;32;19948;-76
2023/01/16 08:04:10;;;;;;;9.57;2.50;;;;;;;;;;4441366;32;20081;-73
2023/01/16 08:06:35;;;;;;;;;;;;;;;;;;4453822;32;20030;-74
2023/01/16 08:09:01;;;;;;;5.00;2.04;;;;;;;;;;4455376;32;19969;-75
2023/01/16 08:11:35;;;;;;;;;;;;;;;;;;4440635;32;20045;-74
2023/01/16 08:14:00;;;;;;;13.07;2.40;;;;;;;;;;4457258;32;19936;-74
2023/01/16 08:16:25;;;;;;;;;;;;;;;;;;4457743;32;20076;-74
2023/01/16 08:18:51;;;;;;;7.43;2.40;;;;;;;;;;4457351;32;19996;-75
2023/01/16 08:21:16;;;;;;;;;;;;;;;;;;4442269;32;20509;-75
2023/01/16 08:23:42;;;;;;;5.80;2.30;;;;;;;;;;4453642;32;19974;-74
2023/01/16 08:26:07;;;;;;;9.05;2.10;;;;;;;;;;4453559;32;20052;-74
2023/01/16 08:28:32;;;;;;;;;;;;;;;;;;4439116;32;20087;-73
2023/01/16 08:31:03;;;;;;;5.70;2.30;;;;;;;;;;4454099;32;20310;-75
2023/01/16 08:33:28;;;;;;;12.30;2.90;;;;;;;;;;4453509;32;20120;-73
2023/01/16 08:35:54;;;;;;;;;;;;;;;;;;4453727;32;20059;-74
2023/01/16 08:38:19;;;;;;;7.32;2.33;;;;;;;;;;4440542;32;19977;-75
2023/01/16 08:40:44;;;;;;;;;;;;;;;;;;4453346;32;20518;-74
2023/01/16 08:51:21;;;;;;;11.82;3.92;;;;;;;;;;4454146;32;20056;-74
2023/01/16 08:53:47;;;;;;;;;;;;;;;;;;4453076;32;20030;-74
2023/01/16 08:56:12;;;;;;;10.32;3.72;;;;;;;;;;4452962;32;19968;-72
2023/01/16 08:58:37;;;;;;;;;;;;;;;;;;4455097;32;20025;-73
2023/01/16 09:01:02;;;;;;;8.07;2.80;;;;;;;;;;4454894;32;20287;-73
2023/01/16 09:03:27;;;;;;;10.35;3.40;;;;;;;;;;4453547;32;20022;-74
2023/01/16 09:05:52;;;;;;;;;;;;;;;;;;4439678;32;20045;-73
2023/01/16 09:08:18;;;;;;;8.43;3.83;;;;;;;;;;4438985;32;19940;-74
2023/01/16 09:13:48;;;;;;;;;;;;;;;;;;4453930;32;20457;-74
2023/01/16 09:16:12;;;;;;;5.90;2.97;;;;;;;;;;4453407;32;20048;-74
2023/01/16 09:18:37;;;;;;;;;;;;;;;;;;4453136;32;20078;-75
2023/01/16 09:21:02;;;;;;;7.53;3.40;;;;;;;;;;4452657;32;20293;-76
2023/01/16 09:23:27;;;;;;;;;;;;;;;;;;4454691;32;20056;-75
2023/01/16 09:25:52;;;;;;;6.62;3.58;;;;;;;;;;4454907;32;19960;-74
2023/01/16 09:28:18;;;;;;;;;;;;;;;;;;4452749;32;20120;-75
2023/01/16 09:30:43;;;;;;;5.35;3.25;;;;;;;;;;4454136;32;19980;-75
2023/01/16 09:33:08;;;;;;;;;;;;;;;;;;4454009;32;20112;-75
2023/01/16 09:35:33;;;;;;;5.20;3.03;;;;;;;;;;4452736;32;19978;-75
2023/01/16 09:37:58;;;;;;;;;;;;;;;;;;4453313;32;20120;-76
2023/01/16 09:40:23;;;;;;;4.47;2.80;;;;;;;;;;4439895;32;19975;-75
2023/01/16 09:45:33;;;;;;;7.62;2.72;;;;;;;;;;4452852;32;19971;-75
2023/01/16 09:47:58;;;;;;;;;;;;;;;;;;4438384;32;20029;-75
2023/01/16 09:50:36;;;;;;;4.87;2.65;;;;;;;;;;4452020;32;20317;-75
2023/01/16 09:58:37;;;;;;;7.00;2.83;;;;;;;;;;4453890;32;20044;-74
2023/01/16 10:01:02;;;;;;;6.37;3.15;;;;;;;;;;4452543;32;20047;-75
2023/01/16 10:03:27;;;;;;;;;;;;;;;;;;4453874;32;20029;-75
2023/01/16 10:06:11;;;;;;;6.22;2.90;;;;;;;;;;4452156;32;19982;-74
2023/01/16 10:09:05;;;;;;;3.90;2.67;;;;;;;;;;4453703;32;20169;-75
2023/01/16 10:11:38;;;;;;;4.35;2.78;;;;;;;;;;4435341;32;20082;-74
2023/01/16 10:14:25;;;;;;;5.82;3.30;;;;;;;;;;4453324;32;20025;-75
2023/01/16 10:16:58;;;;;;;6.75;3.22;;;;;;;;;;4440032;32;20081;-74
2023/01/16 10:19:40;;;;;;;4.82;2.50;;;;;;;;;;4453327;32;20052;-75
2023/01/16 10:22:32;;;;;;;5.47;2.72;;;;;;;;;;4453130;32;20014;-75
2023/01/16 10:25:00;;;;;;;6.45;3.40;;;;;;;;;;4454049;32;20017;-75
2023/01/16 10:27:49;;;;;;;4.05;2.90;;;;;;;;;;4452129;32;20020;-75
2023/01/16 10:30:16;;;;;;;5.85;2.72;;;;;;;;;;4453218;32;20044;-75
2023/01/16 10:32:41;;;;;;;5.32;3.25;;;;;;;;;;4454262;32;20033;-75
2023/01/16 10:35:06;;;;;;;;;;;;;;;;;;4438059;32;20025;-75
2023/01/16 10:37:34;;;;;;;4.35;3.28;;;;;;;;;;4451388;32;19984;-75
2023/01/16 10:40:00;;;;;;;5.97;3.37;;;;;;;;;;4453294;32;20536;-75
2023/01/16 10:50:53;;;;;;;6.60;3.08;;;;;;;;;;4453364;32;20128;-75
2023/01/16 10:53:18;;;;;;;;;;;;;;;;;;4452277;32;20018;-74
2023/01/16 10:55:46;;;;;;;5.62;3.25;;;;;;;;;;4438310;32;19972;-74
2023/01/16 10:58:23;;;;;;;7.07;2.58;;;;;;;;;;4452605;32;20166;-75
2023/01/16 11:00:50;;;;;;;6.00;2.75;;;;;;;;;;4453480;32;20105;-74
2023/01/16 11:03:26;;;;;;;3.83;2.60;;;;;;;;;;4451635;32;20021;-75
2023/01/16 11:06:04;;;;;;;6.32;2.37;;;;;;;;;;4438881;32;20406;-75
2023/01/16 11:08:30;;;;;;;4.97;1.90;;;;;;;;;;4437035;32;20048;-74
2023/01/16 11:10:55;;;;;;;;;;;;;;;;;;4451743;32;20021;-74
2023/01/16 11:18:56;;;;;;;5.53;2.40;;;;;;;;;;4451510;32;20056;-75
2023/01/16 11:21:21;;;;;;;;;;;;;;;;;;4439597;32;20410;-74
2023/01/16 11:23:48;;;;;;;5.18;2.12;;;;;;;;;;4437375;32;19937;-74
2023/01/16 11:26:14;;;;;;;4.93;1.75;;;;;;;;;;4437002;32;20147;-74
2023/01/16 11:28:39;;;;;;;;;;;;;;;;;;4452647;32;20037;-74
2023/01/16 11:31:07;;;;;;;5.82;2.08;;;;;;;;;;4451895;32;19936;-74
2023/01/16 11:33:35;;;;;;;3.28;1.80;;;;;;;;;;4452007;32;20116;-75
2023/01/16 11:36:01;;;;;;;3.22;1.90;;;;;;;;;;4452643;32;20026;-75
2023/01/16 11:38:28;;;;;;;1.45;0.80;;;;;;;;;;4436777;32;20362;-74
2023/01/16 11:40:58;;;;;;;2.72;1.10;;;;;;;;;;4435536;32;20210;-74
2023/01/16 11:46:27;;;;;;;0.90;0.90;;;;;;;;;;4449407;32;20044;-75
2023/01/16 11:48:53;;;;;;;2.15;1.00;;;;;;;;;;4450659;32;20025;-74
2023/01/16 11:51:18;;;;;;;;;;;;;;;;;;4451220;32;20041;-75
2023/01/16 11:53:45;;;;;;;1.02;0.93;;;;;;;;;;4447977;32;19936;-74
2023/01/16 11:56:11;;;;;;;1.45;0.75;;;;;;;;;;4437143;32;20025;-74
2023/01/16 11:58:36;;;;;;;;;;;;;;;;;;4421437;32;20048;-74
2023/01/16 12:01:28;;;;;;;0.77;0.77;;;;;;;;;;4437379;32;20327;-75
2023/01/16 12:03:56;;;;;;;1.42;1.10;;;;;;;;;;4415344;32;20091;-75
2023/01/16 12:06:27;;;;;;;3.40;1.33;;;;;;;;;;4436303;32;20029;-76
2023/01/16 12:09:14;;;;;;;2.05;0.77;;;;;;;;;;4451290;32;20041;-75
2023/01/16 12:11:50;;;;;;;0.88;0.88;;;;;;;;;;4450577;32;20028;-74
2023/01/16 12:14:22;;;;;;;2.60;1.27;;;;;;;;;;4437281;32;20021;-75
2023/01/16 12:16:59;;;;;;;2.67;1.10;;;;;;;;;;4437176;32;20033;-73
2023/01/16 12:19:43;;;;;;;3.53;1.27;;;;;;;;;;4452136;32;20043;-71
2023/01/16 12:22:34;;;;;;;3.72;2.05;;;;;;;;;;4454702;32;20045;-71
2023/01/16 12:25:03;;;;;;;4.50;1.73;;;;;;;;;;4399141;32;20069;-71
2023/01/16 12:27:31;;;;;;;5.65;3.37;;;;;;;;;;4423654;32;20029;-71
2023/01/16 12:30:00;;;;;;;5.15;1.77;;;;;;;;;;4440587;32;20041;-71
2023/01/16 12:32:40;;;;;;;6.97;2.03;;;;;;;;;;4438440;32;20021;-71
2023/01/16 12:35:24;;;;;;;8.15;2.40;;;;;;;;;;4443638;32;20089;-71
2023/01/16 12:38:09;;;;;;;3.17;2.30;;;;;;;;;;4453219;32;20422;-71
2023/01/16 12:40:45;;;;;;;4.25;2.97;;;;;;;;;;4452071;32;20051;-72
2023/01/16 12:43:23;;;;;;;3.75;2.90;;;;;;;;;;4453115;32;20073;-71
2023/01/16 12:45:54;;;;;;;2.83;2.37;;;;;;;;;;4452808;32;20029;-71
2023/01/16 12:48:37;;;;;;;4.72;2.60;;;;;;;;;;4453033;32;20360;-71
2023/01/16 12:51:21;;;;;;;5.43;2.95;;;;;;;;;;4450868;32;20068;-71
2023/01/16 12:53:49;;;;;;;3.58;2.87;;;;;;;;;;4439003;32;20034;-72
2023/01/16 12:56:21;;;;;;;3.92;2.80;;;;;;;;;;4443060;32;20026;-71
2023/01/16 12:58:49;;;;;;;4.00;2.40;;;;;;;;;;4453240;32;20403;-71
2023/01/16 13:01:23;;;;;;;6.68;2.15;;;;;;;;;;4450502;32;20051;-71
2023/01/16 13:03:52;;;;;;;9.10;3.35;;;;;;;;;;4436270;32;20172;-73
2023/01/16 13:06:22;;;;;;;5.80;2.40;;;;;;;;;;4437130;32;20395;-72
2023/01/16 13:08:58;;;;;;;9.30;3.70;;;;;;;;;;4446949;32;20163;-72
2023/01/16 13:14:11;;;;;;;4.75;3.12;;;;;;;;;;4437167;32;20465;-71
2023/01/16 13:16:39;;;;;;;4.07;2.30;;;;;;;;;;4445679;32;20056;-71
2023/01/16 13:19:20;;;;;;;4.07;2.30;;;;;;;;;;4453066;32;20021;-70
2023/01/16 13:21:59;;;;;;;6.80;3.45;;;;;;;;;;4454597;32;20122;-71
2023/01/16 13:24:29;;;;;;;4.12;2.87;;;;;;;;;;4438540;32;20153;-71
2023/01/16 13:27:01;;;;;;;3.25;2.87;;;;;;;;;;4453741;32;20021;-71
2023/01/16 13:29:32;;;;;;;2.80;2.00;;;;;;;;;;4439364;32;20198;-69
2023/01/16 13:32:00;;;;;;;5.90;2.70;;;;;;;;;;4451674;32;20055;-69
2023/01/16 13:34:29;;;;;;;3.20;2.85;;;;;;;;;;4454436;32;20353;-73
2023/01/16 13:37:14;;;;;;;7.97;2.83;;;;;;;;;;4453821;32;20049;-71
2023/01/16 13:39:54;;;;;;;3.28;2.62;;;;;;;;;;4447316;32;20417;-70
2023/01/16 13:42:21;;;;;;;4.28;3.20;;;;;;;;;;4437263;32;20033;-71
2023/01/16 13:47:35;;;;;;;5.07;2.67;;;;;;;;;;4437887;32;20067;-71
2023/01/16 13:50:03;;;;;;;4.93;2.72;;;;;;;;;;4437017;32;20082;-71
2023/01/16 13:52:29;;;;;;;5.50;3.40;;;;;;;;;;4437411;32;20142;-72
2023/01/16 13:54:54;;;;;;;;;;;;;;;;;;4443649;32;20021;-72
2023/01/16 13:57:21;;;;;;;4.82;2.65;;;;;;;;;;4452613;32;19948;-72
2023/01/16 13:59:48;;;;;;;5.55;3.20;;;;;;;;;;4437263;32;20093;-72
2023/01/16 14:02:32;;;;;;;4.10;2.55;;;;;;;;;;4439552;32;20454;-71
2023/01/16 14:05:06;;;;;;;4.50;3.58;;;;;;;;;;4451516;32;20025;-71
2023/01/16 14:10:37;;;;;;;3.08;2.42;;;;;;;;;;4451994;32;20102;-71
2023/01/16 14:13:15;;;;;;;4.35;2.40;;;;;;;;;;4422658;32;21420;-71
2023/01/16 14:18:47;;;;;;;3.53;2.25;;;;;;;;;;4452057;32;20448;-71
2023/01/16 14:21:16;;;;;;;3.40;2.40;;;;;;;;;;4451230;32;20059;-70
2023/01/16 14:24:02;;;;;;;6.05;2.92;;;;;;;;;;4452823;32;20113;-72
2023/01/16 14:26:33;;;;;;;4.37;2.35;;;;;;;;;;4452246;32;20368;-71
2023/01/16 14:29:00;;;;;;;5.82;3.00;;;;;;;;;;4452174;32;20100;-72
2023/01/16 14:31:39;;;;;;;4.65;3.22;;;;;;;;;;4451895;32;20070;-72
2023/01/16 14:34:04;;;;;;;4.30;2.65;;;;;;;;;;4451365;32;20052;-72
2023/01/16 14:36:29;;;;;;;;;;;;;;;;;;4453085;32;20029;-73
2023/01/16 14:38:55;;;;;;;4.97;2.80;;;;;;;;;;4453257;32;19936;-72
2023/01/16 14:55:41;;;;;;;3.95;3.22;;;;;;;;;;4451804;32;20055;-72
2023/01/16 14:58:06;;;;;;;;;;;;;;;;;;4453316;32;20395;-72
2023/01/16 15:00:31;;;;;;;5.62;3.67;;;;;;;;;;4451526;32;19937;-72
2023/01/16 15:02:56;;;;;;;;;;;;;;;;;;4449309;32;20028;-72
2023/01/16 15:05:49;;;;;;;4.45;3.50;;;;;;;;;;4449540;32;19947;-72
2023/01/16 15:08:14;;;;;;;4.95;3.72;;;;;;;;;;4450040;32;20200;-72
2023/01/16 15:10:39;;;;;;;5.87;3.65;;;;;;;;;;4438192;32;20049;-72
2023/01/16 15:13:05;;;;;;;;;;;;;;;;;;4424104;32;20082;-72
2023/01/16 15:15:30;;;;;;;6.55;4.30;;;;;;;;;;4445827;32;19977;-72
2023/01/16 15:23:26;;;;;;;6.10;5.15;;;;;;;;;;4445656;32;20045;-72
2023/01/16 15:25:51;;;;;;;;;;;;;;;;;;4451407;32;20030;-72
2023/01/16 15:28:35;;;;;;;7.22;5.68;;;;;;;;;;4451093;32;20310;-72
2023/01/16 15:31:03;;;;;;;10.95;6.75;;;;;;;;;;4450723;32;20155;-71
2023/01/16 15:36:17;;;;;;;8.68;6.82;;;;;;;;;;4451689;32;20102;-72
2023/01/16 15:38:47;;;;;;;10.40;7.55;;;;;;;;;;4437587;32;20022;-72
2023/01/16 15:41:12;;;;;;;11.73;7.62;;;;;;;;;;4451223;32;20350;-72
2023/01/16 15:46:33;;;;;;;11.80;9.57;;;;;;;;;;4451243;32;19948;-72
2023/01/16 15:49:04;;;;;;;7.32;6.15;;;;;;;;;;4450902;32;20030;-71
2023/01/16 15:51:29;;;;;;;5.93;3.58;;;;;;;;;;4438047;32;20422;-70
2023/01/16 15:53:54;;;;;;;;;;;;;;;;;;4453425;32;20055;-71
2023/01/16 15:56:22;;;;;;;2.97;2.30;;;;;;;;;;4455781;32;19951;-71
2023/01/16 15:58:48;;;;;;;3.05;2.35;;;;;;;;;;4454748;32;20451;-71
2023/01/16 16:01:13;;;;;;;;;;;;;;;;;;4455147;32;20084;-72
2023/01/16 16:03:40;;;;;;;3.25;2.33;;;;;;;;;;4453694;32;19953;-71
2023/01/16 16:06:07;;;;;;;3.00;2.10;;;;;;;;;;4454352;32;20025;-72
2023/01/16 16:08:37;;;;;;;3.12;2.12;;;;;;;;;;4453599;32;20055;-71
2023/01/16 16:13:47;;;;;;;2.00;1.20;;;;;;;;;;4454790;32;20048;-70
2023/01/16 16:18:57;;;;;;;2.08;1.65;;;;;;;;;;4454551;32;19939;-71
2023/01/16 16:21:23;;;;;;;5.00;2.33;;;;;;;;;;4454923;32;20028;-72
2023/01/16 16:23:48;;;;;;;;;;;;;;;;;;4454894;32;20120;-71
2023/01/16 16:26:19;;;;;;;3.22;1.50;;;;;;;;;;4453564;32;19983;-71
2023/01/16 16:28:44;;;;;;;2.42;1.50;;;;;;;;;;4451877;32;20103;-72
2023/01/16 16:31:09;;;;;;;;;;;;;;;;;;4454821;32;20390;-72
2023/01/16 16:33:35;;;;;;;6.87;1.70;;;;;;;;;;4455246;32;19967;-72
2023/01/16 16:36:00;;;;;;;;;;;;;;;;;;4453760;32;20116;-72
2023/01/16 16:38:41;;;;;;;1.08;0.98;;;;;;;;;;4454040;32;19939;-70
2023/01/16 16:41:06;;;;;;;1.55;1.15;;;;;;;;;;4454527;32;20124;-71
2023/01/16 16:43:31;;;;;;;;;;;;;;;;;;4453159;32;20022;-71
2023/01/16 16:46:13;;;;;;;1.90;1.35;;;;;;;;;;4453216;32;20324;-73
2023/01/16 16:48:38;;;;;;;1.60;1.50;;;;;;;;;;4438791;32;20029;-73